Craig, Missouri
Current Conditions -  °F | °C
As of 2:53 PM on Friday 19 Dec 2014 (Local Time) from KFNB Reporting Station
Overcast Overcast  
Wind Chill: 25°   Ceiling: 700
Heat Index: 31°   Visibility: 10mi
Dew Point: 27°   Wind: 6mph
Humidity: 85%   Direction: 180°S
Pressure: 30.19"   Gusts: NA
Location:  40.19°N, 95.37°W
Report Text: KFNB 192053Z AUTO 18005KT 10SM OVC007 M01/M03 A3019 RMK AO2 SLP234 T10061028 56023
Loading
Personal Weather Stations






























Interactive Weather Map New forecast layout! Learn more

10-Day Weather Forecast

Advertisements
Track Severe Weather on mobile